Time;durP1;ratioP1;P1;durP2;ratioP2;P2;SDS_P1;SDS_P2;PMS_P1;PMS_P2;Temp;Humidity;BMP_temperature;BMP_pressure;BME280_temperature;BME280_humidity;BME280_pressure;Samples;Min_cycle;Max_cycle;Signal;HPM_P1;HPM_P2
2023/07/01 00:01:25;;;;;;;;;;;15.90;99.90;;;;;;5096095;28;20387;-65
2023/07/01 00:03:50;;;;;;;3.08;0.57;;;15.80;99.90;;;;;;5095222;28;19920;-64
2023/07/01 00:06:16;;;;;;;;;;;15.60;99.90;;;;;;5094387;28;20051;-66
2023/07/01 00:08:42;;;;;;;0.20;0.20;;;15.60;99.90;;;;;;5094771;28;19927;-64
2023/07/01 00:11:08;;;;;;;;;;;15.60;99.90;;;;;;5095860;28;20113;-63
2023/07/01 00:13:34;;;;;;;0.40;0.40;;;15.20;99.90;;;;;;5095459;28;19924;-62
2023/07/01 00:15:59;;;;;;;;;;;15.10;99.90;;;;;;5095810;28;20093;-63
2023/07/01 00:18:26;;;;;;;0.40;0.40;;;15.50;99.90;;;;;;5095084;28;19920;-65
2023/07/01 00:20:53;;;;;;;1.02;1.02;;;16.90;99.90;;;;;;5095286;28;20055;-65
2023/07/01 00:23:19;;;;;;;0.57;0.50;;;15.60;99.90;;;;;;5095850;28;20365;-64
2023/07/01 00:25:45;;;;;;;;;;;15.50;99.90;;;;;;5095599;28;20036;-62
2023/07/01 00:28:10;;;;;;;0.32;0.32;;;15.60;99.90;;;;;;5095165;28;19920;-62
2023/07/01 00:30:36;;;;;;;;;;;15.50;99.90;;;;;;5096018;28;20040;-63
2023/07/01 00:33:02;;;;;;;0.98;0.45;;;14.90;99.90;;;;;;5094073;28;20337;-61
2023/07/01 00:35:28;;;;;;;0.40;0.40;;;15.40;99.90;;;;;;5094971;28;20047;-66
2023/07/01 00:37:54;;;;;;;4.32;1.02;;;15.50;99.90;;;;;;5095189;28;20047;-63
2023/07/01 00:40:20;;;;;;;;;;;15.40;99.90;;;;;;5095209;28;20052;-65
2023/07/01 00:42:46;;;;;;;0.28;0.28;;;15.40;99.90;;;;;;5094840;28;19926;-64
2023/07/01 00:45:11;;;;;;;;;;;15.30;99.90;;;;;;5095633;28;20090;-65
2023/07/01 00:47:40;;;;;;;0.28;0.28;;;15.20;99.90;;;;;;5095309;28;19955;-65
2023/07/01 00:50:11;;;;;;;0.20;0.20;;;15.10;99.90;;;;;;5094730;28;20400;-63
2023/07/01 00:52:41;;;;;;;0.57;0.57;;;15.70;99.90;;;;;;5094716;28;20052;-63
2023/07/01 00:55:08;;;;;;;0.25;0.25;;;15.40;99.90;;;;;;5095077;28;20052;-65
2023/07/01 00:57:34;;;;;;;1.35;1.08;;;17.40;99.90;;;;;;5094482;28;20055;-64
2023/07/01 01:00:08;;;;;;;;;;;15.50;99.90;;;;;;5095165;28;20048;-65
2023/07/01 01:02:44;;;;;;;0.50;0.50;;;15.00;99.90;;;;;;5093743;28;20011;-64
2023/07/01 01:05:17;;;;;;;0.63;0.55;;;15.40;99.90;;;;;;5094192;28;20085;-65
2023/07/01 01:08:07;;;;;;;0.22;0.22;;;15.50;99.90;;;;;;5094849;28;20475;-65
2023/07/01 01:10:35;;;;;;;1.80;0.93;;;15.60;99.90;;;;;;5094580;28;20044;-64
2023/07/01 01:13:04;;;;;;;0.57;0.57;;;16.20;99.90;;;;;;5094463;28;20048;-65
2023/07/01 01:15:31;;;;;;;0.55;0.40;;;15.20;99.90;;;;;;5094232;28;20044;-65
2023/07/01 01:18:02;;;;;;;0.47;0.47;;;15.70;99.90;;;;;;5093183;28;20056;-64
2023/07/01 01:20:31;;;;;;;0.30;0.30;;;15.30;99.90;;;;;;5093160;28;20091;-65
2023/07/01 01:23:14;;;;;;;0.30;0.30;;;15.00;99.90;;;;;;5094078;28;20039;-63
2023/07/01 01:25:58;;;;;;;2.30;1.02;;;15.70;99.90;;;;;;5093044;28;20074;-65
2023/07/01 01:28:24;;;;;;;0.55;0.43;;;15.20;99.90;;;;;;5094179;28;20075;-64
2023/07/01 01:30:50;;;;;;;;;;;15.70;99.90;;;;;;5094061;28;20566;-64
2023/07/01 01:33:16;;;;;;;0.77;0.52;;;15.60;99.90;;;;;;5093852;28;19924;-62
2023/07/01 01:35:42;;;;;;;;;;;15.00;99.90;;;;;;5094257;28;20048;-63
2023/07/01 01:38:19;;;;;;;0.95;0.90;;;15.70;99.90;;;;;;5094281;28;19920;-62
2023/07/01 01:40:58;;;;;;;0.63;0.60;;;14.90;99.90;;;;;;5094031;28;20429;-62
2023/07/01 01:44:01;;;;;;;0.25;0.25;;;15.40;99.90;;;;;;5094105;28;20055;-61
2023/07/01 01:46:28;;;;;;;0.75;0.75;;;15.30;99.90;;;;;;5093666;28;20089;-62
2023/07/01 01:48:56;;;;;;;0.30;0.30;;;14.90;99.90;;;;;;5093607;28;20135;-63
2023/07/01 01:51:24;;;;;;;0.75;0.70;;;15.70;99.90;;;;;;5093225;28;20547;-61
2023/07/01 01:53:52;;;;;;;0.60;0.60;;;15.30;99.90;;;;;;5093579;28;20434;-60
2023/07/01 01:56:19;;;;;;;1.67;0.93;;;15.30;99.90;;;;;;5093660;28;20048;-63
2023/07/01 01:58:47;;;;;;;0.40;0.40;;;15.40;99.90;;;;;;5092246;28;20052;-62
2023/07/01 02:01:13;;;;;;;0.50;0.50;;;15.50;99.90;;;;;;5093430;28;20052;-61
2023/07/01 02:03:39;;;;;;;0.93;0.50;;;14.80;99.90;;;;;;5093326;28;20066;-62
2023/07/01 02:06:04;;;;;;;;;;;15.40;99.90;;;;;;5093578;28;20483;-61
2023/07/01 02:08:30;;;;;;;1.52;0.88;;;15.30;99.90;;;;;;5093370;28;19920;-62
2023/07/01 02:10:56;;;;;;;;;;;14.80;99.90;;;;;;5094256;28;20494;-62
2023/07/01 02:13:22;;;;;;;0.50;0.50;;;14.50;99.90;;;;;;5093244;28;19931;-62
2023/07/01 02:15:47;;;;;;;;;;;14.40;99.90;;;;;;5093677;28;20062;-65
2023/07/01 02:18:13;;;;;;;0.30;0.30;;;14.40;99.90;;;;;;5093788;28;20363;-63
2023/07/01 02:20:38;;;;;;;;;;;15.10;99.90;;;;;;5093575;28;20044;-61
2023/07/01 02:23:04;;;;;;;0.50;0.50;;;14.60;99.90;;;;;;5093896;28;19920;-64
2023/07/01 02:25:29;;;;;;;;;;;14.50;99.90;;;;;;5093938;28;20434;-61
2023/07/01 02:27:55;;;;;;;0.70;0.47;;;14.90;99.90;;;;;;5093890;28;19924;-62
2023/07/01 02:30:21;;;;;;;;;;;14.60;99.90;;;;;;5093524;28;20084;-62
2023/07/01 02:32:46;;;;;;;0.32;0.32;;;15.40;99.90;;;;;;5095784;28;19963;-61
2023/07/01 02:35:12;;;;;;;;;;;14.80;99.90;;;;;;5098456;28;20052;-61
2023/07/01 02:37:38;;;;;;;0.40;0.40;;;15.10;99.90;;;;;;5097272;28;19924;-62
2023/07/01 02:40:04;;;;;;;;;;;15.00;99.90;;;;;;5097626;28;20457;-61
2023/07/01 02:42:30;;;;;;;0.40;0.40;;;15.20;99.90;;;;;;5097628;28;19924;-62
2023/07/01 02:44:55;;;;;;;0.38;0.38;;;15.00;99.90;;;;;;5095611;28;20047;-63
2023/07/01 02:47:21;;;;;;;;;;;14.90;99.90;;;;;;5097378;28;20097;-61
2023/07/01 02:49:47;;;;;;;0.63;0.63;;;15.10;99.90;;;;;;5097036;28;19927;-61
2023/07/01 02:52:12;;;;;;;;;;;14.80;99.90;;;;;;5097411;28;20494;-60
2023/07/01 02:54:41;;;;;;;2.85;1.00;;;14.50;99.90;;;;;;5096687;28;19927;-61
2023/07/01 02:57:08;;;;;;;0.45;0.45;;;15.50;99.90;;;;;;5096077;28;20040;-60
2023/07/01 02:59:35;;;;;;;1.05;0.80;;;14.70;99.90;;;;;;5096893;28;20654;-61
2023/07/01 03:02:01;;;;;;;1.25;1.15;;;15.50;99.90;;;;;;5096722;28;20093;-61
2023/07/01 03:04:27;;;;;;;0.20;0.20;;;14.50;99.90;;;;;;5097050;28;20063;-60
2023/07/01 03:06:53;;;;;;;0.30;0.30;;;15.20;99.90;;;;;;5097382;28;20468;-61
2023/07/01 03:09:18;;;;;;;;;;;15.00;99.90;;;;;;5097007;28;20046;-60
2023/07/01 03:11:44;;;;;;;0.47;0.47;;;15.10;99.90;;;;;;5095771;28;19977;-60
2023/07/01 03:14:12;;;;;;;;;;;15.50;99.90;;;;;;5096828;28;20044;-60
2023/07/01 03:16:38;;;;;;;0.75;0.57;;;14.80;99.90;;;;;;5096428;28;19920;-62
2023/07/01 03:19:05;;;;;;;0.77;0.77;;;15.40;99.90;;;;;;5096376;28;20044;-60
2023/07/01 03:21:31;;;;;;;0.30;0.30;;;15.60;99.90;;;;;;5096318;28;20094;-61
2023/07/01 03:23:56;;;;;;;1.60;0.77;;;14.80;99.90;;;;;;5096264;28;20475;-62
2023/07/01 03:26:22;;;;;;;;;;;14.70;99.90;;;;;;5096582;28;20089;-62
2023/07/01 03:28:47;;;;;;;0.43;0.43;;;15.60;99.90;;;;;;5096208;28;19927;-61
2023/07/01 03:31:13;;;;;;;;;;;15.90;99.90;;;;;;5095343;28;20530;-62
2023/07/01 03:33:39;;;;;;;0.50;0.50;;;14.70;99.90;;;;;;5096097;28;20332;-62
2023/07/01 03:36:04;;;;;;;;;;;14.90;99.90;;;;;;5097214;28;20044;-61
2023/07/01 03:38:30;;;;;;;0.20;0.20;;;15.40;99.90;;;;;;5096043;28;19924;-63
2023/07/01 03:40:55;;;;;;;;;;;15.70;99.90;;;;;;5096325;28;20048;-62
2023/07/01 03:43:21;;;;;;;0.50;0.50;;;14.60;99.90;;;;;;5094803;28;19924;-61
2023/07/01 03:45:47;;;;;;;;;;;15.80;99.90;;;;;;5096758;28;20055;-62
2023/07/01 03:48:13;;;;;;;1.52;1.42;;;15.50;99.90;;;;;;5096360;28;20352;-62
2023/07/01 03:50:38;;;;;;;;;;;15.90;99.90;;;;;;5096932;28;20059;-61
2023/07/01 03:53:05;;;;;;;0.47;0.47;;;15.60;99.90;;;;;;5095703;28;20286;-60
2023/07/01 03:55:30;;;;;;;0.65;0.65;;;15.50;99.90;;;;;;5095333;28;20519;-61
2023/07/01 03:57:56;;;;;;;1.02;0.95;;;15.60;99.90;;;;;;5095741;28;20086;-62
2023/07/01 04:00:23;;;;;;;;;;;15.80;99.90;;;;;;5095999;28;20494;-61
2023/07/01 04:02:51;;;;;;;0.80;0.60;;;14.40;99.90;;;;;;5094441;28;19919;-61
2023/07/01 04:05:18;;;;;;;3.83;0.70;;;14.60;99.90;;;;;;5095463;28;20139;-61
2023/07/01 04:07:46;;;;;;;0.95;0.93;;;14.40;99.90;;;;;;5095530;28;20048;-62
2023/07/01 04:10:12;;;;;;;0.70;0.70;;;14.80;99.90;;;;;;5095393;28;20047;-61
2023/07/01 04:12:39;;;;;;;0.57;0.57;;;15.70;99.90;;;;;;5095386;28;20364;-61
2023/07/01 04:15:09;;;;;;;1.20;1.10;;;14.70;99.90;;;;;;5095255;28;20083;-62
2023/07/01 04:17:44;;;;;;;0.70;0.70;;;14.90;99.90;;;;;;5095349;28;20054;-61
2023/07/01 04:20:11;;;;;;;0.98;0.90;;;14.40;99.90;;;;;;5095247;28;20051;-63
2023/07/01 04:22:38;;;;;;;0.95;0.95;;;15.60;99.90;;;;;;5095146;28;20051;-60
2023/07/01 04:25:04;;;;;;;1.38;1.23;;;14.50;99.90;;;;;;5095020;28;20050;-61
2023/07/01 04:27:30;;;;;;;0.43;0.43;;;15.40;99.90;;;;;;5094066;28;20051;-61
2023/07/01 04:29:56;;;;;;;1.17;1.05;;;15.20;99.90;;;;;;5095023;28;20051;-62
2023/07/01 04:32:21;;;;;;;0.80;0.80;;;14.30;99.90;;;;;;5095280;28;20056;-61
2023/07/01 04:34:47;;;;;;;;;;;15.90;99.90;;;;;;5095766;28;20467;-62
2023/07/01 04:37:13;;;;;;;1.38;1.27;;;14.40;99.90;;;;;;5094885;28;19965;-62
2023/07/01 04:39:39;;;;;;;;;;;15.30;99.90;;;;;;5095244;28;20044;-61
2023/07/01 04:42:05;;;;;;;0.45;0.45;;;15.50;99.90;;;;;;5094821;28;19955;-61
2023/07/01 04:44:32;;;;;;;;;;;15.60;99.90;;;;;;5095099;28;20040;-61
2023/07/01 04:46:58;;;;;;;0.88;0.60;;;14.80;99.90;;;;;;5094715;28;19920;-61
2023/07/01 04:49:24;;;;;;;;;;;15.00;99.90;;;;;;5094990;28;20036;-61
2023/07/01 04:51:49;;;;;;;2.33;0.30;;;15.00;99.90;;;;;;5094885;28;19924;-61
2023/07/01 04:54:15;;;;;;;;;;;15.90;99.90;;;;;;5095201;28;20512;-60
2023/07/01 04:56:41;;;;;;;0.43;0.43;;;15.80;99.90;;;;;;5094492;28;20034;-62
2023/07/01 04:59:07;;;;;;;;;;;15.20;99.90;;;;;;5094785;28;20488;-62
2023/07/01 05:01:32;;;;;;;0.73;0.73;;;14.50;99.90;;;;;;5093221;28;19927;-63
2023/07/01 05:03:58;;;;;;;;;;;15.60;99.90;;;;;;5094485;28;20047;-61
2023/07/01 05:06:24;;;;;;;13.75;3.55;;;14.70;99.90;;;;;;5094805;28;19920;-61
2023/07/01 05:08:49;;;;;;;;;;;15.70;99.90;;;;;;5094704;28;20043;-62
2023/07/01 05:11:15;;;;;;;0.43;0.43;;;15.80;99.90;;;;;;5094191;28;20287;-62
2023/07/01 05:13:40;;;;;;;;;;;15.20;99.90;;;;;;5093291;28;20168;-61
2023/07/01 05:16:06;;;;;;;0.65;0.65;;;15.80;99.90;;;;;;5093789;28;19920;-62
2023/07/01 05:18:32;;;;;;;;;;;15.90;99.90;;;;;;5094831;28;20043;-61
2023/07/01 05:20:57;;;;;;;0.80;0.63;;;15.80;99.90;;;;;;5093752;28;19920;-61
2023/07/01 05:23:23;;;;;;;;;;;15.10;99.90;;;;;;5095161;28;20131;-62
2023/07/01 05:25:49;;;;;;;0.55;0.55;;;14.60;99.90;;;;;;5093891;28;19927;-62
2023/07/01 05:28:15;;;;;;;1.13;0.98;;;15.20;99.90;;;;;;5094082;28;20518;-61
2023/07/01 05:30:41;;;;;;;1.13;0.82;;;15.00;99.90;;;;;;5093863;28;20048;-62
2023/07/01 05:33:06;;;;;;;;;;;15.20;99.90;;;;;;5094135;28;20044;-63
2023/07/01 05:35:32;;;;;;;0.43;0.43;;;16.10;99.90;;;;;;5093698;28;19920;-62
2023/07/01 05:37:57;;;;;;;;;;;14.50;99.90;;;;;;5094134;28;20048;-61
2023/07/01 05:40:23;;;;;;;0.47;0.47;;;15.60;99.90;;;;;;5093569;28;19920;-61
2023/07/01 05:42:49;;;;;;;;;;;16.20;99.90;;;;;;5094778;28;20094;-61
2023/07/01 05:45:15;;;;;;;1.08;0.90;;;14.40;99.90;;;;;;5093030;28;19920;-62
2023/07/01 05:47:40;;;;;;;;;;;15.10;99.90;;;;;;5093900;28;20541;-62
2023/07/01 05:50:06;;;;;;;0.68;0.68;;;15.70;99.90;;;;;;5093768;28;19920;-62
2023/07/01 05:52:32;;;;;;;;;;;16.40;99.90;;;;;;5093898;28;20097;-62
2023/07/01 05:54:58;;;;;;;0.68;0.68;;;15.60;99.90;;;;;;5093690;28;19919;-62
2023/07/01 05:57:23;;;;;;;;;;;12.60;99.90;;;;;;5093717;28;20051;-61
2023/07/01 05:59:49;;;;;;;0.35;0.35;;;15.40;99.90;;;;;;5093406;28;19920;-62
2023/07/01 06:02:15;;;;;;;;;;;16.50;99.90;;;;;;5094240;28;20502;-62
2023/07/01 06:04:41;;;;;;;4.90;0.75;;;16.40;99.90;;;;;;5093175;28;19920;-62
2023/07/01 06:07:06;;;;;;;;;;;15.10;99.90;;;;;;5093723;28;20069;-62
2023/07/01 06:09:32;;;;;;;0.15;0.15;;;16.60;99.90;;;;;;5093124;28;20390;-63
2023/07/01 06:11:57;;;;;;;;;;;15.20;99.90;;;;;;5093223;28;20128;-61
2023/07/01 06:14:23;;;;;;;0.50;0.50;;;16.00;99.90;;;;;;5093346;28;19920;-62
2023/07/01 06:16:49;;;;;;;;;;;15.80;99.90;;;;;;5093515;28;20040;-62
2023/07/01 06:19:14;;;;;;;1.25;0.52;;;16.60;99.90;;;;;;5093043;28;19927;-61
2023/07/01 06:21:40;;;;;;;;;;;15.60;99.90;;;;;;5094188;28;20071;-61
2023/07/01 06:24:06;;;;;;;0.40;0.40;;;15.70;99.90;;;;;;5092912;28;20073;-61
2023/07/01 06:26:31;;;;;;;;;;;16.50;99.90;;;;;;5093438;28;20199;-62
2023/07/01 06:28:57;;;;;;;0.40;0.40;;;16.80;99.90;;;;;;5093119;28;19920;-65
2023/07/01 06:31:22;;;;;;;;;;;16.70;99.90;;;;;;5094068;28;20356;-63
2023/07/01 06:33:48;;;;;;;0.77;0.77;;;15.80;99.90;;;;;;5093640;28;19920;-62
2023/07/01 06:36:17;;;;;;;;;;;17.20;99.90;;;;;;5094077;28;20501;-62
2023/07/01 06:38:43;;;;;;;0.38;0.38;;;16.20;99.90;;;;;;5092889;28;20018;-63
2023/07/01 06:41:09;;;;;;;0.45;0.40;;;17.00;99.90;;;;;;5092795;28;20044;-62
2023/07/01 06:43:38;;;;;;;;;;;16.60;99.90;;;;;;5093073;28;20078;-61
2023/07/01 06:46:06;;;;;;;0.35;0.35;;;17.00;99.90;;;;;;5092763;28;19920;-61
2023/07/01 06:48:32;;;;;;;0.77;0.55;;;15.80;99.90;;;;;;5092984;28;20051;-62
2023/07/01 06:50:58;;;;;;;0.63;0.63;;;15.70;99.90;;;;;;5092950;28;20353;-62
2023/07/01 06:53:23;;;;;;;;;;;17.10;99.90;;;;;;5093518;28;20043;-62
2023/07/01 06:55:49;;;;;;;0.22;0.22;;;15.90;99.90;;;;;;5091775;28;19970;-62
2023/07/01 06:58:15;;;;;;;;;;;15.40;99.90;;;;;;5093535;28;20058;-62
2023/07/01 07:00:41;;;;;;;0.47;0.47;;;16.40;99.90;;;;;;5093071;28;19927;-61
2023/07/01 07:03:07;;;;;;;0.47;0.47;;;16.00;99.90;;;;;;5092698;28;20391;-63
2023/07/01 07:05:33;;;;;;;;;;;16.50;99.90;;;;;;5092530;28;20131;-62
2023/07/01 07:07:59;;;;;;;0.55;0.52;;;16.80;99.90;;;;;;5092460;28;19968;-63
2023/07/01 07:10:25;;;;;;;0.30;0.30;;;16.10;99.90;;;;;;5092359;28;20048;-63
2023/07/01 07:12:51;;;;;;;;;;;16.10;99.90;;;;;;5092903;28;20062;-62
2023/07/01 07:15:16;;;;;;;0.73;0.45;;;16.30;99.90;;;;;;5092346;28;19926;-62
2023/07/01 07:17:42;;;;;;;;;;;17.80;99.90;;;;;;5093553;28;20121;-62
2023/07/01 07:20:08;;;;;;;0.77;0.57;;;16.50;99.90;;;;;;5095284;28;20367;-63
2023/07/01 07:22:34;;;;;;;0.13;0.13;;;16.30;99.90;;;;;;5096306;28;20059;-62
2023/07/01 07:24:59;;;;;;;;;;;16.10;99.90;;;;;;5096233;28;20032;-64
2023/07/01 07:27:25;;;;;;;0.40;0.40;;;16.50;99.90;;;;;;5096105;28;19974;-63
2023/07/01 07:29:50;;;;;;;;;;;16.30;99.90;;;;;;5096516;28;20168;-63
2023/07/01 07:32:16;;;;;;;0.10;0.10;;;17.00;99.90;;;;;;5096091;28;19920;-62
2023/07/01 07:34:42;;;;;;;0.43;0.43;;;17.10;99.90;;;;;;5096093;28;20051;-63
2023/07/01 07:37:07;;;;;;;;;;;17.50;99.90;;;;;;5095299;28;20044;-62
2023/07/01 07:39:33;;;;;;;0.17;0.17;;;17.70;99.90;;;;;;5095612;28;20003;-63
2023/07/01 07:41:59;;;;;;;;;;;16.50;99.90;;;;;;5096270;28;20078;-62
2023/07/01 07:44:25;;;;;;;0.20;0.20;;;18.10;99.90;;;;;;5095787;28;19937;-62
2023/07/01 07:46:50;;;;;;;;;;;18.10;99.90;;;;;;5096414;28;20048;-62
2023/07/01 07:49:16;;;;;;;0.10;0.10;;;18.40;99.90;;;;;;5095802;28;20010;-62
2023/07/01 07:51:43;;;;;;;0.10;0.10;;;16.50;99.90;;;;;;5095577;28;20036;-62
2023/07/01 07:54:08;;;;;;;0.10;0.10;;;18.00;99.90;;;;;;5095662;28;20090;-61
2023/07/01 07:56:34;;;;;;;;;;;18.40;99.90;;;;;;5095990;28;20475;-63
2023/07/01 07:59:00;;;;;;;0.10;0.10;;;17.00;99.90;;;;;;5095977;28;20348;-61
2023/07/01 08:01:25;;;;;;;;;;;16.80;99.90;;;;;;5095873;28;20119;-62
2023/07/01 08:03:51;;;;;;;0.10;0.10;;;18.60;99.90;;;;;;5094211;28;19969;-61
2023/07/01 08:06:17;;;;;;;0.10;0.10;;;16.30;99.90;;;;;;5096413;28;20078;-61
2023/07/01 08:08:43;;;;;;;0.10;0.10;;;16.80;99.90;;;;;;5095455;28;20440;-62
2023/07/01 08:11:08;;;;;;;0.20;0.20;;;18.60;99.90;;;;;;5095228;28;20087;-62
2023/07/01 08:13:34;;;;;;;0.10;0.10;;;16.70;99.90;;;;;;5095288;28;20044;-62
2023/07/01 08:16:00;;;;;;;0.10;0.10;;;18.10;99.90;;;;;;5095106;28;20047;-62
2023/07/01 08:18:25;;;;;;;;;;;17.10;99.90;;;;;;5096034;28;20421;-63
2023/07/01 08:20:51;;;;;;;0.15;0.15;;;16.60;99.90;;;;;;5095105;28;20053;-62
2023/07/01 08:23:17;;;;;;;;;;;18.60;99.90;;;;;;5096096;28;20369;-61
2023/07/01 08:25:43;;;;;;;0.10;0.10;;;17.00;99.90;;;;;;5076149;28;19930;-62
2023/07/01 08:28:09;;;;;;;0.57;0.52;;;18.50;99.90;;;;;;5094888;28;20458;-63
2023/07/01 08:30:35;;;;;;;;;;;17.10;99.90;;;;;;5094931;28;20190;-62
2023/07/01 08:33:01;;;;;;;0.10;0.10;;;18.60;99.90;;;;;;5094740;28;19940;-62
2023/07/01 08:35:26;;;;;;;;;;;16.70;99.90;;;;;;5094853;28;20040;-65
2023/07/01 08:37:52;;;;;;;0.10;0.10;;;17.30;99.90;;;;;;5094732;28;19931;-64
2023/07/01 08:40:18;;;;;;;0.10;0.10;;;16.80;99.90;;;;;;5094611;28;20036;-63
2023/07/01 08:43:04;;;;;;;0.10;0.10;;;18.30;99.90;;;;;;5094803;28;20044;-63
2023/07/01 08:45:31;;;;;;;;;;;17.00;99.90;;;;;;5095009;28;20135;-63
2023/07/01 08:48:00;;;;;;;0.00;0.00;;;16.70;99.90;;;;;;5093212;28;19920;-63
2023/07/01 08:50:33;;;;;;;0.20;0.20;;;16.80;99.90;;;;;;5094420;28;20075;-63
2023/07/01 08:53:04;;;;;;;0.10;0.10;;;17.10;99.90;;;;;;5095080;28;20360;-62
2023/07/01 08:55:31;;;;;;;0.20;0.20;;;17.80;99.90;;;;;;5093056;28;20131;-63
2023/07/01 08:57:57;;;;;;;0.10;0.10;;;18.30;99.90;;;;;;5093019;28;20480;-62
2023/07/01 09:00:23;;;;;;;0.10;0.10;;;17.60;99.90;;;;;;5093924;28;20471;-62
2023/07/01 09:02:49;;;;;;;0.32;0.32;;;19.40;99.90;;;;;;5094233;28;20040;-63
2023/07/01 09:05:14;;;;;;;0.10;0.10;;;17.40;99.90;;;;;;5093516;28;20100;-63
2023/07/01 09:07:43;;;;;;;0.30;0.30;;;17.80;99.90;;;;;;5094124;28;20048;-65
2023/07/01 09:10:12;;;;;;;0.38;0.35;;;17.40;99.90;;;;;;5094038;28;20055;-62
2023/07/01 09:12:37;;;;;;;0.20;0.20;;;19.20;99.90;;;;;;5092507;28;20375;-62
2023/07/01 09:15:07;;;;;;;0.32;0.32;;;18.60;99.90;;;;;;5093670;28;20048;-62
2023/07/01 09:17:41;;;;;;;0.30;0.30;;;17.10;99.90;;;;;;5093993;28;20055;-62
2023/07/01 09:20:12;;;;;;;0.28;0.28;;;17.90;99.90;;;;;;5092636;28;20048;-63
2023/07/01 09:22:40;;;;;;;0.20;0.20;;;17.40;99.90;;;;;;5094585;28;20055;-62
2023/07/01 09:25:07;;;;;;;0.10;0.10;;;18.50;99.90;;;;;;5093745;28;20248;-63
2023/07/01 09:27:46;;;;;;;0.15;0.15;;;19.30;99.90;;;;;;5094121;28;20072;-63
2023/07/01 09:30:27;;;;;;;0.20;0.20;;;18.10;99.90;;;;;;5094362;28;20097;-63
2023/07/01 09:33:10;;;;;;;0.30;0.30;;;17.20;99.90;;;;;;5093521;28;20094;-63
2023/07/01 09:35:46;;;;;;;0.20;0.20;;;18.10;99.90;;;;;;5093615;28;20051;-64
2023/07/01 09:38:12;;;;;;;0.50;0.50;;;17.90;99.90;;;;;;5093729;28;20055;-62
2023/07/01 09:40:37;;;;;;;0.35;0.35;;;17.00;99.90;;;;;;5093344;28;20129;-64
2023/07/01 09:43:03;;;;;;;0.20;0.20;;;19.20;99.90;;;;;;5092829;28;20113;-62
2023/07/01 09:45:29;;;;;;;0.65;0.65;;;19.30;99.90;;;;;;5093333;28;20525;-62
2023/07/01 09:47:54;;;;;;;0.82;0.82;;;19.40;99.90;;;;;;5092160;28;20140;-64
2023/07/01 09:50:26;;;;;;;0.57;0.55;;;19.00;99.90;;;;;;5093278;28;20044;-63
2023/07/01 09:52:53;;;;;;;0.50;0.50;;;18.20;99.90;;;;;;5093224;28;20051;-63
2023/07/01 09:55:19;;;;;;;0.20;0.20;;;19.20;99.90;;;;;;5093191;28;20044;-62
2023/07/01 09:57:45;;;;;;;1.20;0.40;;;19.10;99.90;;;;;;5093379;28;20491;-63
2023/07/01 10:00:17;;;;;;;0.28;0.28;;;17.70;99.90;;;;;;5093132;28;20094;-62
2023/07/01 10:02:44;;;;;;;0.80;0.50;;;17.60;99.90;;;;;;5092898;28;20093;-62
2023/07/01 10:05:12;;;;;;;0.93;0.55;;;17.20;99.90;;;;;;5092761;28;20067;-62
2023/07/01 10:07:38;;;;;;;0.28;0.28;;;18.80;99.90;;;;;;5093267;28;20048;-63
2023/07/01 10:10:04;;;;;;;0.43;0.38;;;17.50;99.90;;;;;;5093273;28;20122;-62
2023/07/01 10:12:31;;;;;;;0.30;0.30;;;19.00;99.90;;;;;;5093304;28;20051;-63
2023/07/01 10:14:58;;;;;;;0.63;0.63;;;17.90;99.90;;;;;;5093694;28;20372;-62
2023/07/01 10:17:45;;;;;;;0.30;0.30;;;18.30;99.90;;;;;;5092927;28;20044;-62
2023/07/01 10:20:26;;;;;;;0.40;0.40;;;18.80;99.90;;;;;;5093109;28;20077;-62
2023/07/01 10:22:57;;;;;;;0.63;0.63;;;17.70;99.90;;;;;;5093056;28;20135;-62
2023/07/01 10:25:41;;;;;;;0.45;0.45;;;18.60;99.90;;;;;;5093385;28;20036;-63
2023/07/01 10:28:14;;;;;;;1.08;0.70;;;17.80;99.90;;;;;;5092996;28;20079;-62
2023/07/01 10:30:46;;;;;;;1.52;1.05;;;18.00;99.90;;;;;;5092192;28;20392;-64
2023/07/01 10:33:30;;;;;;;0.82;0.40;;;19.60;99.90;;;;;;5092844;28;20456;-62
2023/07/01 10:36:04;;;;;;;0.60;0.60;;;18.20;99.90;;;;;;5092474;28;20097;-63
2023/07/01 10:38:30;;;;;;;1.55;1.45;;;19.60;99.90;;;;;;5091289;28;20341;-61
2023/07/01 10:40:56;;;;;;;0.30;0.30;;;18.10;99.90;;;;;;5093204;28;20044;-65
2023/07/01 10:43:29;;;;;;;0.57;0.57;;;18.40;99.90;;;;;;5093054;28;20098;-62
2023/07/01 10:46:23;;;;;;;1.75;0.60;;;19.80;99.90;;;;;;5092688;28;20080;-62
2023/07/01 10:49:05;;;;;;;0.40;0.40;;;19.50;99.90;;;;;;5092373;28;20054;-63
2023/07/01 10:51:52;;;;;;;0.40;0.40;;;18.20;99.90;;;;;;5092735;28;20040;-64
2023/07/01 10:54:31;;;;;;;0.40;0.40;;;19.30;99.90;;;;;;5095699;28;20080;-62
2023/07/01 10:57:15;;;;;;;0.50;0.50;;;19.60;99.90;;;;;;5096608;28;20044;-62
2023/07/01 10:59:41;;;;;;;0.70;0.70;;;18.70;99.90;;;;;;5096748;28;20055;-62
2023/07/01 11:02:09;;;;;;;0.73;0.73;;;19.80;99.90;;;;;;5096444;28;20044;-63
2023/07/01 11:04:55;;;;;;;0.55;0.52;;;18.80;99.90;;;;;;5096209;28;20060;-63
2023/07/01 11:07:26;;;;;;;0.32;0.32;;;19.90;99.90;;;;;;5096374;28;20087;-63
2023/07/01 11:09:52;;;;;;;0.88;0.85;;;19.60;99.90;;;;;;5096408;28;20493;-63
2023/07/01 11:12:18;;;;;;;0.45;0.38;;;18.50;99.90;;;;;;5096386;28;20114;-64
2023/07/01 11:14:44;;;;;;;0.82;0.82;;;19.40;99.90;;;;;;5095048;28;20043;-62
2023/07/01 11:17:13;;;;;;;0.40;0.40;;;19.50;99.90;;;;;;5096514;28;20040;-62
2023/07/01 11:19:39;;;;;;;0.50;0.50;;;20.00;99.90;;;;;;5096184;28;20036;-63
2023/07/01 11:22:05;;;;;;;0.45;0.45;;;20.00;99.90;;;;;;5096064;28;20048;-63
2023/07/01 11:24:32;;;;;;;0.20;0.20;;;20.00;99.90;;;;;;5096481;28;20382;-63
2023/07/01 11:27:08;;;;;;;3.60;1.15;;;19.60;99.90;;;;;;5095917;28;20047;-63
2023/07/01 11:29:35;;;;;;;0.35;0.35;;;19.80;99.90;;;;;;5096857;28;20094;-64
2023/07/01 11:32:06;;;;;;;2.50;0.82;;;20.50;99.90;;;;;;5095960;28;20051;-63
2023/07/01 11:34:32;;;;;;;0.40;0.40;;;19.70;99.90;;;;;;5094636;28;20055;-63
2023/07/01 11:36:59;;;;;;;2.47;1.13;;;20.90;99.90;;;;;;5095875;28;20177;-64
2023/07/01 11:39:26;;;;;;;0.70;0.70;;;20.60;99.90;;;;;;5095818;28;20091;-64
2023/07/01 11:41:52;;;;;;;0.30;0.28;;;19.80;99.90;;;;;;5095560;28;20048;-64
2023/07/01 11:44:23;;;;;;;0.55;0.55;;;20.50;99.90;;;;;;5095527;28;20113;-65
2023/07/01 11:46:49;;;;;;;0.30;0.30;;;19.20;99.90;;;;;;5094508;28;20051;-65
2023/07/01 11:49:21;;;;;;;0.25;0.25;;;19.80;99.90;;;;;;5095505;28;20073;-63
2023/07/01 11:52:01;;;;;;;0.70;0.70;;;19.50;99.90;;;;;;5095626;28;20484;-63
2023/07/01 11:54:38;;;;;;;0.38;0.38;;;19.70;99.90;;;;;;5096273;28;20048;-65
2023/07/01 11:57:14;;;;;;;0.47;0.47;;;18.90;99.90;;;;;;5095479;28;20048;-65
2023/07/01 11:59:41;;;;;;;;;;;19.40;99.90;;;;;;5096224;28;20093;-64
2023/07/01 12:02:07;;;;;;;0.45;0.30;;;20.00;99.90;;;;;;5095498;28;19920;-64
2023/07/01 12:04:35;;;;;;;1.88;0.45;;;20.00;99.90;;;;;;5094191;28;20060;-64
2023/07/01 12:07:16;;;;;;;0.70;0.70;;;19.40;99.90;;;;;;5095809;28;20048;-66
2023/07/01 12:09:45;;;;;;;0.20;0.20;;;20.10;99.90;;;;;;5095534;28;20081;-64
2023/07/01 12:12:13;;;;;;;0.50;0.40;;;20.20;99.90;;;;;;5095296;28;20062;-65
2023/07/01 12:14:39;;;;;;;0.52;0.52;;;20.40;99.90;;;;;;5095208;28;20119;-64
2023/07/01 12:17:05;;;;;;;0.60;0.60;;;20.10;99.90;;;;;;5095110;28;20126;-65
2023/07/01 12:19:31;;;;;;;1.08;0.90;;;20.00;99.90;;;;;;5095164;28;20043;-65
2023/07/01 12:21:59;;;;;;;0.30;0.30;;;20.40;99.90;;;;;;5095012;28;20062;-65
2023/07/01 12:24:26;;;;;;;0.52;0.52;;;20.30;99.90;;;;;;5094932;28;20101;-64
2023/07/01 12:26:57;;;;;;;0.13;0.13;;;19.90;99.90;;;;;;5094904;28;20044;-67
2023/07/01 12:29:24;;;;;;;0.40;0.40;;;20.10;99.90;;;;;;5094554;28;20545;-65
2023/07/01 12:31:50;;;;;;;0.43;0.43;;;19.90;99.90;;;;;;5094920;28;20044;-64
2023/07/01 12:34:16;;;;;;;0.40;0.40;;;19.70;99.90;;;;;;5095268;28;20044;-65
2023/07/01 12:36:46;;;;;;;0.30;0.30;;;19.90;99.90;;;;;;5094709;28;20048;-65
2023/07/01 12:39:15;;;;;;;0.47;0.20;;;19.90;99.90;;;;;;5094334;28;20378;-66
2023/07/01 12:41:42;;;;;;;0.30;0.30;;;19.90;99.90;;;;;;5094654;28;20134;-63
2023/07/01 12:44:08;;;;;;;6.18;0.65;;;19.90;99.90;;;;;;5094490;28;20492;-66
2023/07/01 12:46:35;;;;;;;0.22;0.22;;;19.40;99.90;;;;;;5094625;28;20083;-65
2023/07/01 12:49:03;;;;;;;0.40;0.40;;;19.10;99.90;;;;;;5094491;28;20130;-65
2023/07/01 12:51:32;;;;;;;0.55;0.38;;;19.40;99.90;;;;;;5094494;28;20051;-65
2023/07/01 12:53:59;;;;;;;0.13;0.13;;;19.60;99.90;;;;;;5094369;28;20048;-66
2023/07/01 12:56:25;;;;;;;1.02;1.02;;;19.40;99.90;;;;;;5094387;28;20479;-66
2023/07/01 12:58:51;;;;;;;2.90;0.73;;;19.30;99.90;;;;;;5094800;28;20059;-63
2023/07/01 13:01:17;;;;;;;0.40;0.40;;;19.30;99.90;;;;;;5094838;28;20517;-67
2023/07/01 13:03:43;;;;;;;3.15;1.65;;;19.80;99.90;;;;;;5094236;28;20065;-66
2023/07/01 13:06:31;;;;;;;1.35;0.15;;;19.90;99.90;;;;;;5095019;28;20173;-67
2023/07/01 13:09:02;;;;;;;0.35;0.35;;;19.80;99.90;;;;;;5094252;28;20142;-66